createdAt,value
2022-10-05T00:01:56.966Z,5.13
2022-10-05T00:04:28.132Z,4.82
2022-10-05T00:07:15.423Z,5.55
2022-10-05T00:09:44.555Z,5.50
2022-10-05T00:12:17.281Z,4.80
2022-10-05T00:14:45.977Z,5.13
2022-10-05T00:17:19.866Z,4.82
2022-10-05T00:19:54.413Z,4.68
2022-10-05T00:22:23.931Z,5.20
2022-10-05T00:24:57.674Z,4.85
2022-10-05T00:29:57.666Z,4.70
2022-10-05T00:32:24.681Z,5.25
2022-10-05T00:34:51.958Z,4.90
2022-10-05T00:37:19.635Z,4.38
2022-10-05T00:39:47.473Z,4.55
2022-10-05T00:42:35.536Z,4.32
2022-10-05T00:45:07.339Z,4.85
2022-10-05T00:47:49.254Z,4.70
2022-10-05T00:50:30.376Z,4.32
2022-10-05T00:53:20.593Z,4.32
2022-10-05T00:55:47.742Z,3.92
2022-10-05T00:58:20.638Z,4.72
2022-10-05T01:01:11.825Z,4.23
2022-10-05T01:04:15.160Z,4.70
2022-10-05T01:06:51.103Z,4.72
2022-10-05T01:09:31.046Z,4.63
2022-10-05T01:11:57.982Z,4.90
2022-10-05T01:15:02.256Z,5.18
2022-10-05T01:17:29.240Z,4.45
2022-10-05T01:20:34.674Z,5.07
2022-10-05T01:23:20.328Z,4.60
2022-10-05T01:26:07.772Z,5.10
2022-10-05T01:28:53.880Z,4.43
2022-10-05T01:31:30.291Z,5.63
2022-10-05T01:34:18.928Z,6.35
2022-10-05T01:36:56.334Z,6.03
2022-10-05T01:39:57.222Z,5.60
2022-10-05T01:42:33.137Z,6.32
2022-10-05T01:45:41.670Z,6.43
2022-10-05T01:48:16.332Z,6.18
2022-10-05T01:51:01.273Z,6.05
2022-10-05T01:53:41.502Z,6.22
2022-10-05T01:56:24.868Z,6.60
2022-10-05T01:59:11.275Z,6.63
2022-10-05T02:02:11.192Z,6.50
2022-10-05T02:05:06.523Z,7.00
2022-10-05T02:07:40.192Z,6.65
2022-10-05T02:10:32.774Z,7.07
2022-10-05T02:13:09.315Z,7.03
2022-10-05T02:16:09.463Z,7.35
2022-10-05T02:18:52.588Z,7.28
2022-10-05T02:21:21.036Z,7.22
2022-10-05T02:23:53.508Z,6.85
2022-10-05T02:26:24.703Z,7.22
2022-10-05T02:29:04.654Z,7.65
2022-10-05T02:31:45.786Z,7.53
2022-10-05T02:34:27.583Z,7.75
2022-10-05T02:37:26.985Z,7.47
2022-10-05T02:39:59.690Z,8.20
2022-10-05T02:42:46.812Z,7.40
2022-10-05T02:45:13.778Z,7.93
2022-10-05T02:48:08.473Z,7.10
2022-10-05T02:51:20.177Z,8.15
2022-10-05T02:54:05.796Z,7.35
2022-10-05T02:56:45.928Z,8.35
2022-10-05T02:59:35.358Z,8.25
2022-10-05T03:02:14.837Z,7.40
2022-10-05T03:05:05.016Z,7.45
2022-10-05T03:07:56.941Z,7.55
2022-10-05T03:10:35.449Z,8.05
2022-10-05T03:13:17.527Z,7.57
2022-10-05T03:16:07.093Z,7.50
2022-10-05T03:19:07.066Z,7.40
2022-10-05T03:21:56.006Z,8.15
2022-10-05T03:24:39.380Z,7.00
2022-10-05T03:27:23.863Z,7.95
2022-10-05T03:30:02.505Z,7.25
2022-10-05T03:32:49.814Z,7.93
2022-10-05T03:35:30.750Z,7.97
2022-10-05T03:38:19.140Z,7.95
2022-10-05T03:41:20.260Z,6.80
2022-10-05T03:44:12.504Z,7.55
2022-10-05T03:47:08.315Z,7.57
2022-10-05T03:49:58.058Z,6.88
2022-10-05T03:52:44.150Z,7.18
2022-10-05T03:55:31.097Z,7.15
2022-10-05T03:58:02.879Z,6.55
2022-10-05T04:00:31.873Z,6.32
2022-10-05T04:03:22.465Z,7.10
2022-10-05T04:05:57.551Z,6.47
2022-10-05T04:08:52.502Z,6.57
2022-10-05T04:11:44.528Z,6.00
2022-10-05T04:14:24.313Z,6.00
2022-10-05T04:17:09.876Z,6.40
2022-10-05T04:19:53.735Z,5.60
2022-10-05T04:22:25.360Z,5.72
2022-10-05T04:25:01.460Z,5.90
2022-10-05T04:27:43.970Z,5.30
2022-10-05T04:30:19.397Z,5.25
2022-10-05T04:32:57.346Z,5.63
2022-10-05T04:35:33.052Z,5.28
2022-10-05T04:38:35.605Z,5.60
2022-10-05T04:41:11.462Z,5.10
2022-10-05T04:43:48.429Z,4.70
2022-10-05T04:46:46.659Z,5.60
2022-10-05T04:49:28.916Z,4.65
2022-10-05T04:52:04.989Z,4.78
2022-10-05T04:54:38.354Z,5.22
2022-10-05T04:57:17.738Z,5.30
2022-10-05T04:59:53.501Z,5.28
2022-10-05T05:02:38.740Z,5.15
2022-10-05T05:05:34.619Z,4.57
2022-10-05T05:08:43.364Z,5.28
2022-10-05T05:11:19.985Z,5.07
2022-10-05T05:14:18.214Z,4.45
2022-10-05T05:17:12.866Z,4.72
2022-10-05T05:20:05.423Z,4.05
2022-10-05T05:22:50.012Z,4.20
2022-10-05T05:25:52.339Z,3.78
2022-10-05T05:28:45.064Z,3.50
2022-10-05T05:31:44.072Z,3.45
2022-10-05T05:34:47.909Z,3.70
2022-10-05T05:37:35.071Z,3.03
2022-10-05T05:40:27.289Z,2.85
2022-10-05T05:43:45.966Z,2.63
2022-10-05T05:46:38.833Z,3.40
2022-10-05T05:49:29.747Z,2.78
2022-10-05T05:52:04.581Z,3.30
2022-10-05T05:54:38.742Z,2.95
2022-10-05T05:57:38.612Z,2.80
2022-10-05T06:00:14.746Z,3.47
2022-10-05T06:03:11.237Z,3.63
2022-10-05T06:05:44.277Z,3.22
2022-10-05T06:08:23.583Z,3.83
2022-10-05T06:11:01.316Z,3.65
2022-10-05T06:13:34.239Z,4.07
2022-10-05T06:16:21.074Z,4.13
2022-10-05T06:18:54.655Z,4.22
2022-10-05T06:21:41.166Z,4.50
2022-10-05T06:24:21.568Z,4.10
2022-10-05T06:27:07.172Z,4.10
2022-10-05T06:30:09.387Z,3.25
2022-10-05T06:32:51.207Z,4.18
2022-10-05T06:35:45.445Z,4.03
2022-10-05T06:38:44.465Z,4.28
2022-10-05T06:41:37.572Z,4.30
2022-10-05T06:44:42.791Z,3.80
2022-10-05T06:47:38.324Z,4.70
2022-10-05T06:50:32.756Z,4.32
2022-10-05T06:55:59.844Z,4.90
2022-10-05T06:58:41.657Z,5.13
2022-10-05T07:01:34.562Z,4.57
2022-10-05T07:04:32.303Z,4.47
2022-10-05T07:07:17.145Z,4.85
2022-10-05T07:10:09.018Z,4.72
2022-10-05T07:12:58.729Z,4.75
2022-10-05T07:15:56.520Z,3.97
2022-10-05T07:18:53.552Z,4.47
2022-10-05T07:21:35.652Z,4.32
2022-10-05T07:24:23.163Z,4.13
2022-10-05T07:27:04.670Z,4.47
2022-10-05T07:29:45.138Z,4.53
2022-10-05T07:32:35.329Z,4.07
2022-10-05T07:35:09.234Z,4.10
2022-10-05T07:37:57.939Z,4.53
2022-10-05T07:40:38.205Z,4.20
2022-10-05T07:43:32.085Z,3.78
2022-10-05T07:46:24.882Z,3.65
2022-10-05T07:49:00.029Z,4.03
2022-10-05T07:51:39.076Z,3.42
2022-10-05T07:54:34.145Z,3.60
2022-10-05T07:57:12.955Z,3.47
2022-10-05T07:59:48.943Z,4.00
2022-10-05T08:02:44.912Z,3.47
2022-10-05T08:05:34.631Z,4.03
2022-10-05T08:08:11.644Z,3.30
2022-10-05T08:11:25.652Z,4.13
2022-10-05T08:14:16.657Z,3.28
2022-10-05T08:16:46.958Z,3.25
2022-10-05T08:19:20.285Z,3.55
2022-10-05T08:22:12.574Z,3.80
2022-10-05T08:24:58.845Z,3.00
2022-10-05T08:27:46.755Z,3.70
2022-10-05T08:30:16.349Z,3.40
2022-10-05T08:33:25.917Z,3.67
2022-10-05T08:36:23.502Z,3.45
2022-10-05T08:38:59.143Z,3.00
2022-10-05T08:41:44.917Z,3.65
2022-10-05T08:44:42.472Z,3.28
2022-10-05T08:47:58.223Z,3.80
2022-10-05T08:51:02.263Z,3.60
2022-10-05T08:53:51.021Z,3.47
2022-10-05T08:56:31.429Z,3.70
2022-10-05T08:59:19.122Z,3.72
2022-10-05T09:02:18.577Z,3.67
2022-10-05T09:04:58.152Z,3.47
2022-10-05T09:07:53.658Z,3.10
2022-10-05T09:10:56.788Z,3.20
2022-10-05T09:13:23.809Z,3.30
2022-10-05T09:16:34.129Z,3.03
2022-10-05T09:19:11.815Z,2.85
2022-10-05T09:21:52.224Z,2.63
2022-10-05T09:24:48.235Z,2.28
2022-10-05T09:27:17.860Z,2.63
2022-10-05T09:30:06.314Z,2.10
2022-10-05T09:32:55.267Z,2.25
2022-10-05T09:35:52.399Z,2.45
2022-10-05T09:38:54.203Z,2.05
2022-10-05T09:42:14.739Z,2.35
2022-10-05T09:44:53.350Z,2.22
2022-10-05T09:47:55.216Z,2.85
2022-10-05T09:50:28.050Z,3.03
2022-10-05T09:53:19.709Z,3.27
2022-10-05T09:56:05.220Z,2.78
2022-10-05T09:58:33.269Z,2.95
2022-10-05T10:01:36.422Z,2.70
2022-10-05T10:04:12.222Z,2.30
2022-10-05T10:06:42.343Z,2.33
2022-10-05T10:09:37.865Z,1.50
2022-10-05T10:12:23.342Z,2.88
2022-10-05T10:15:30.961Z,2.08
2022-10-05T10:18:03.837Z,2.00
2022-10-05T10:20:43.029Z,1.93
2022-10-05T10:23:32.674Z,2.15
2022-10-05T10:26:11.298Z,2.42
2022-10-05T10:29:03.087Z,3.05
2022-10-05T10:31:50.785Z,2.65
2022-10-05T10:34:40.170Z,2.28
2022-10-05T10:37:25.128Z,3.05
2022-10-05T10:39:57.869Z,2.10
2022-10-05T10:43:12.456Z,2.30
2022-10-05T10:45:57.912Z,2.30
2022-10-05T10:48:31.066Z,2.60
2022-10-05T10:51:35.410Z,2.63
2022-10-05T10:54:38.487Z,2.75
2022-10-05T10:57:22.582Z,2.78
2022-10-05T11:02:54.412Z,2.90
2022-10-05T11:05:33.738Z,2.70
2022-10-05T11:08:16.023Z,2.78
2022-10-05T11:10:54.864Z,3.65
2022-10-05T11:13:38.347Z,2.92
2022-10-05T11:16:15.966Z,3.53
2022-10-05T11:19:40.299Z,2.78
2022-10-05T11:22:57.126Z,2.92
2022-10-05T11:25:27.728Z,2.90
2022-10-05T11:28:19.233Z,3.05
2022-10-05T11:31:09.220Z,3.22
2022-10-05T11:34:20.519Z,3.00
2022-10-05T11:37:03.004Z,2.70
2022-10-05T11:39:42.028Z,3.50
2022-10-05T11:42:32.579Z,2.72
2022-10-05T11:45:11.461Z,2.63
2022-10-05T11:48:15.171Z,3.13
2022-10-05T11:51:11.958Z,3.07
2022-10-05T11:53:57.555Z,2.20
2022-10-05T11:59:04.023Z,3.00
2022-10-05T12:01:57.614Z,2.20
2022-10-05T12:04:50.263Z,2.53
2022-10-05T12:07:29.199Z,2.60
2022-10-05T12:10:23.370Z,2.90
2022-10-05T12:13:22.368Z,3.17
2022-10-05T12:16:06.134Z,2.72
2022-10-05T12:18:33.999Z,2.95
2022-10-05T12:21:17.387Z,2.25
2022-10-05T12:23:59.034Z,1.83
2022-10-05T12:26:31.972Z,2.20
2022-10-05T12:29:08.172Z,1.90
2022-10-05T12:31:50.549Z,2.03
2022-10-05T12:34:49.356Z,2.22
2022-10-05T12:37:40.282Z,2.25
2022-10-05T12:40:48.564Z,1.95
2022-10-05T12:43:58.759Z,2.05
2022-10-05T12:46:44.155Z,2.35
2022-10-05T12:49:40.314Z,2.35
2022-10-05T12:52:35.306Z,2.15
2022-10-05T12:55:26.186Z,2.38
2022-10-05T12:58:28.184Z,1.83
2022-10-05T13:01:01.374Z,2.25
2022-10-05T13:03:37.285Z,2.63
2022-10-05T13:06:23.248Z,2.80
2022-10-05T13:09:08.663Z,1.85
2022-10-05T13:11:46.987Z,2.00
2022-10-05T13:14:34.924Z,1.42
2022-10-05T13:17:15.183Z,1.85
2022-10-05T13:19:53.567Z,1.92
2022-10-05T13:22:43.552Z,2.35
2022-10-05T13:25:23.794Z,2.22
2022-10-05T13:28:17.599Z,2.20
2022-10-05T13:31:01.129Z,1.80
2022-10-05T13:34:00.727Z,1.63
2022-10-05T13:36:49.491Z,2.33
2022-10-05T13:39:40.746Z,2.22
2022-10-05T13:42:42.897Z,2.67
2022-10-05T13:45:26.035Z,2.00
2022-10-05T13:47:59.423Z,1.58
2022-10-05T13:50:42.869Z,1.95
2022-10-05T13:53:29.097Z,1.98
2022-10-05T13:56:06.088Z,1.77
2022-10-05T13:58:42.907Z,2.00
2022-10-05T14:01:26.502Z,1.83
2022-10-05T14:04:20.990Z,1.50
2022-10-05T14:06:49.066Z,1.85
2022-10-05T14:09:25.463Z,2.10
2022-10-05T14:12:05.088Z,1.92
2022-10-05T14:14:43.748Z,1.73
2022-10-05T14:17:32.993Z,1.80
2022-10-05T14:20:03.417Z,1.90
2022-10-05T14:22:40.473Z,1.42
2022-10-05T14:25:07.424Z,1.48
2022-10-05T14:27:47.876Z,1.58
2022-10-05T14:30:14.847Z,1.35
2022-10-05T14:33:05.107Z,1.63
2022-10-05T14:35:50.580Z,1.50
2022-10-05T14:38:19.143Z,1.27
2022-10-05T14:41:01.882Z,1.65
2022-10-05T14:43:30.119Z,1.60
2022-10-05T14:45:57.176Z,1.40
2022-10-05T14:48:28.210Z,1.60
2022-10-05T14:51:03.450Z,1.63
2022-10-05T14:53:43.496Z,1.77
2022-10-05T14:56:28.717Z,1.60
2022-10-05T14:59:05.303Z,1.40
2022-10-05T15:01:39.170Z,1.58
2022-10-05T15:04:35.405Z,1.88
2022-10-05T15:07:20.338Z,1.45
2022-10-05T15:09:59.178Z,1.52
2022-10-05T15:12:39.552Z,1.30
2022-10-05T15:15:25.359Z,1.27
2022-10-05T15:18:00.221Z,1.50
2022-10-05T15:20:46.632Z,1.20
2022-10-05T15:23:24.859Z,1.33
2022-10-05T15:26:08.336Z,1.35
2022-10-05T15:29:14.224Z,1.35
2022-10-05T15:31:59.359Z,1.42
2022-10-05T15:34:38.879Z,1.85
2022-10-05T15:37:16.845Z,1.73
2022-10-05T15:39:52.648Z,1.23
2022-10-05T15:42:32.514Z,1.63
2022-10-05T15:45:02.517Z,1.40
2022-10-05T15:47:46.197Z,1.80
2022-10-05T15:50:27.167Z,1.98
2022-10-05T15:53:06.512Z,1.65
2022-10-05T15:55:56.025Z,1.60
2022-10-05T15:58:23.509Z,1.40
2022-10-05T16:00:58.777Z,2.00
2022-10-05T16:03:41.837Z,1.65
2022-10-05T16:06:48.615Z,1.58
2022-10-05T16:09:37.968Z,1.70
2022-10-05T16:12:28.895Z,1.60
2022-10-05T16:15:17.602Z,1.33
2022-10-05T16:18:08.651Z,1.50
2022-10-05T16:20:47.975Z,1.58
2022-10-05T16:23:37.327Z,1.38
2022-10-05T16:26:20.988Z,1.75
2022-10-05T16:29:04.517Z,1.35
2022-10-05T16:31:47.041Z,1.27
2022-10-05T16:34:23.292Z,1.30
2022-10-05T16:36:50.236Z,1.20
2022-10-05T16:39:35.155Z,1.15
2022-10-05T16:42:14.203Z,1.60
2022-10-05T16:45:26.453Z,1.48
2022-10-05T16:48:14.813Z,1.73
2022-10-05T16:51:10.980Z,1.42
2022-10-05T16:53:45.639Z,1.63
2022-10-05T16:56:17.488Z,1.55
2022-10-05T16:59:04.134Z,1.75
2022-10-05T17:01:50.848Z,2.00
2022-10-05T17:04:36.829Z,1.73
2022-10-05T17:07:22.391Z,1.55
2022-10-05T17:10:04.471Z,1.30
2022-10-05T17:12:46.643Z,1.60
2022-10-05T17:15:39.577Z,1.52
2022-10-05T17:18:28.524Z,1.50
2022-10-05T17:21:07.835Z,1.92
2022-10-05T17:24:05.544Z,1.20
2022-10-05T17:26:53.208Z,1.20
2022-10-05T17:29:47.680Z,1.17
2022-10-05T17:32:15.656Z,1.40
2022-10-05T17:35:00.592Z,1.40
2022-10-05T17:37:27.534Z,1.80
2022-10-05T17:39:56.362Z,1.70
2022-10-05T17:42:26.120Z,2.30
2022-10-05T17:45:20.085Z,2.10
2022-10-05T17:48:05.343Z,1.70
2022-10-05T17:51:11.114Z,1.55
2022-10-05T17:54:02.712Z,1.85
2022-10-05T17:56:31.765Z,1.73
2022-10-05T17:59:04.564Z,1.35
2022-10-05T18:01:35.193Z,1.80
2022-10-05T18:04:11.113Z,1.58
2022-10-05T18:06:56.036Z,1.50
2022-10-05T18:09:24.203Z,2.22
2022-10-05T18:12:17.812Z,2.28
2022-10-05T18:14:54.784Z,1.90
2022-10-05T18:17:40.365Z,1.52
2022-10-05T18:20:21.135Z,1.33
2022-10-05T18:22:50.837Z,1.70
2022-10-05T18:25:29.679Z,1.45
2022-10-05T18:28:14.108Z,2.13
2022-10-05T18:31:12.096Z,1.88
2022-10-05T18:33:57.292Z,1.65
2022-10-05T18:36:44.403Z,2.28
2022-10-05T18:39:23.455Z,1.92
2022-10-05T18:42:10.623Z,2.05
2022-10-05T18:44:52.339Z,1.85
2022-10-05T18:47:25.448Z,1.73
2022-10-05T18:50:26.925Z,1.65
2022-10-05T18:53:18.329Z,1.67
2022-10-05T18:55:56.164Z,1.80
2022-10-05T18:58:41.551Z,2.08
2022-10-05T19:01:31.984Z,2.30
2022-10-05T19:03:59.066Z,1.98
2022-10-05T19:06:53.991Z,2.00
2022-10-05T19:09:48.619Z,1.75
2022-10-05T19:12:20.668Z,1.85
2022-10-05T19:15:00.058Z,1.80
2022-10-05T19:17:46.664Z,1.75
2022-10-05T19:20:42.779Z,2.13
2022-10-05T19:23:18.548Z,1.95
2022-10-05T19:25:51.587Z,1.95
2022-10-05T19:28:38.497Z,2.00
2022-10-05T19:31:14.869Z,1.65
2022-10-05T19:34:02.273Z,1.90
2022-10-05T19:36:49.063Z,1.95
2022-10-05T19:39:27.055Z,1.95
2022-10-05T19:42:36.898Z,1.92
2022-10-05T19:45:28.012Z,2.95
2022-10-05T19:48:19.190Z,1.98
2022-10-05T19:51:00.687Z,0.90
2022-10-05T19:53:37.008Z,1.00
2022-10-05T19:56:22.425Z,0.82
2022-10-05T19:58:50.190Z,0.65
2022-10-05T20:01:43.580Z,0.77
2022-10-05T20:04:10.623Z,0.98
2022-10-05T20:06:39.539Z,0.60
2022-10-05T20:09:21.251Z,0.80
2022-10-05T20:11:53.336Z,0.80
2022-10-05T20:14:29.135Z,0.80
2022-10-05T20:17:53.468Z,0.85
2022-10-05T20:20:39.243Z,1.02
2022-10-05T20:23:27.941Z,0.60
2022-10-05T20:26:13.260Z,0.60
2022-10-05T20:28:40.476Z,0.70
2022-10-05T20:31:08.388Z,1.10
2022-10-05T20:33:36.123Z,1.00
2022-10-05T20:36:03.698Z,0.70
2022-10-05T20:38:31.664Z,0.95
2022-10-05T20:40:58.894Z,1.10
2022-10-05T20:43:25.960Z,0.50
2022-10-05T20:45:55.964Z,1.00
2022-10-05T20:48:24.304Z,0.98
2022-10-05T20:50:51.573Z,1.40
2022-10-05T20:53:18.575Z,1.00
2022-10-05T20:55:45.548Z,1.10
2022-10-05T20:58:12.548Z,1.38
2022-10-05T21:00:58.145Z,1.77
2022-10-05T21:03:25.298Z,1.63
2022-10-05T21:05:52.492Z,1.17
2022-10-05T21:08:19.668Z,1.15
2022-10-05T21:10:46.752Z,1.27
2022-10-05T21:13:13.770Z,1.17
2022-10-05T21:15:40.789Z,0.77
2022-10-05T21:18:08.266Z,0.45
2022-10-05T21:20:35.292Z,0.50
2022-10-05T21:23:02.284Z,0.50
2022-10-05T21:25:29.305Z,0.60
2022-10-05T21:27:56.373Z,0.60
2022-10-05T21:30:23.770Z,0.50
2022-10-05T21:32:50.812Z,0.50
2022-10-05T21:35:17.872Z,0.80
2022-10-05T21:37:44.966Z,0.68
2022-10-05T21:40:12.149Z,0.45
2022-10-05T21:42:39.240Z,0.52
2022-10-05T21:45:06.974Z,0.60
2022-10-05T21:47:33.992Z,0.40
2022-10-05T21:50:03.587Z,0.30
2022-10-05T21:52:30.899Z,0.85
2022-10-05T21:54:57.992Z,0.40
2022-10-05T21:57:25.230Z,0.75
2022-10-05T21:59:52.647Z,0.70
2022-10-05T22:02:19.621Z,0.68
2022-10-05T22:04:46.684Z,0.70
2022-10-05T22:07:19.212Z,0.50
2022-10-05T22:09:50.284Z,0.40
2022-10-05T22:12:19.690Z,0.55
2022-10-05T22:14:47.682Z,0.50
2022-10-05T22:17:19.585Z,0.40
2022-10-05T22:19:46.798Z,0.70
2022-10-05T22:22:13.770Z,0.43
2022-10-05T22:24:40.769Z,0.82
2022-10-05T22:27:08.607Z,0.50
2022-10-05T22:29:36.952Z,0.80
2022-10-05T22:32:04.079Z,0.60
2022-10-05T22:34:31.282Z,0.57
2022-10-05T22:36:59.703Z,0.40
2022-10-05T22:39:27.011Z,0.60
2022-10-05T22:41:54.051Z,1.00
2022-10-05T22:44:21.103Z,0.75
2022-10-05T22:46:48.221Z,0.60
2022-10-05T22:49:15.322Z,0.85
2022-10-05T22:51:42.371Z,0.73
2022-10-05T22:54:09.419Z,0.90
2022-10-05T22:56:36.893Z,1.42
2022-10-05T22:59:04.007Z,1.58
2022-10-05T23:01:31.014Z,1.52
2022-10-05T23:03:58.141Z,1.42
2022-10-05T23:06:28.280Z,3.33
2022-10-05T23:08:55.262Z,2.30
2022-10-05T23:11:25.897Z,1.48
2022-10-05T23:13:55.806Z,3.13
2022-10-05T23:16:26.136Z,2.05
2022-10-05T23:18:54.381Z,2.55
2022-10-05T23:21:23.923Z,3.85
2022-10-05T23:23:51.260Z,3.50
2022-10-05T23:26:21.104Z,6.00
2022-10-05T23:28:49.130Z,2.20
2022-10-05T23:31:19.550Z,2.03
2022-10-05T23:33:46.897Z,3.13
2022-10-05T23:36:17.265Z,4.25
2022-10-05T23:38:45.039Z,3.67
2022-10-05T23:41:13.025Z,1.83
2022-10-05T23:43:40.505Z,1.17
2022-10-05T23:46:08.479Z,2.63
2022-10-05T23:48:39.137Z,2.10
2022-10-05T23:51:09.080Z,3.58
2022-10-05T23:53:36.958Z,2.80
2022-10-05T23:56:04.599Z,2.58
2022-10-05T23:58:31.936Z,2.65
